Startpagina
METAR-TAF:

METAR-TAF

Vliegvelden :

Katima Mulilo, Namibië

breedte: 17-38-04S, lengte: 024-10-36E, hoogte: 985 m

Actueel weer

Dit bericht is 2 uur en het 45 minuten geleden gemaakt, om 08:00 UTC
Wind 3 kt uit het noorden
Temperatuur 26°C
Vochtigheid 17%
Druk 1022 hPa

METAR: FYKM 250800Z AUTO 01003KT //// // ////// 26/M01 Q1022

Tijdstip: 12:45 (10:45 UTC)

Verwachting

Dit bericht is 2 uur en het 45 minuten geleden gemaakt, om 08:00 UTC
Verwachting geldig van 25 om 09 UTC tot 25 om 18 UTC
Wind 3 kt uit het noorden
Zicht 10 km of meer
geen wolken onder 1500 m en geen cumulonimbus
Wijzigt naar
van 25 om 10 UTC tot 25 om 12 UTC
Wind 4 kt uit het zuidzuidwesten

TAF: FYKM 250800Z 2509/2518 01003KT CAVOK BECMG 2510/2512 20004KT

Waarnemingen en weersverwachtingen van meer dan 4000 vliegvelden (METAR en TAF).

De beschikbare stations zijn de gele en rode punten op de kaart.

Ga met uw muis naar het station om de naam te zien.

Klik dan om waarnemingen en weersverwachtingen te zien.

kaart wijzigen: klik op de groene knoppen met een zwart kruis om in te zoomen, op de groene knop met een streepje om uit te zoomen of op de groene pijlen voor aangrenzende kaarten.


METAR-TAF: